KTRI/TRI METAR and TAF weather

Enter ICAO airport designator
Station Type Date Time Source
KTRI METAR 2020/07/05 03:53 UTC NOAA

KTRI 050353Z 00000KT 10SM FEW090 23/20 A3001 RMK AO2 SLP133 T02280200


Station Type Date Time Source
KTRI Decoded METAR 2020/07/05 03:53 UTC NOAA

TRI-CITY REGIONAL AIRPORT, TN, United States (KTRI) 36-28N 082-24W 474M
Jul 04, 2020 - 11:53 PM EDT / 2020.07.05 0353 UTC
Wind: Calm:0
Visibility: 10 mile(s):0
Sky conditions: mostly clear
Temperature: 73.0 F (22.8 C)
Dew Point: 68.0 F (20.0 C)
Relative Humidity: 84%
Pressure (altimeter): 30.01 in. Hg (1016 hPa)
ob: KTRI 050353Z 00000KT 10SM FEW090 23/20 A3001 RMK AO2 SLP133 T02280200
cycle: 4

Station Type Date Time Source
KTRI TAF 2020/07/04 18:22 UTC NOAA

TAF KTRI 041720Z 0418/0518 VRB02KT P6SM FEW050
FM050300 00000KT P6SM FEW100
FM051500 VRB02KT P6SM SCT080

Example: see airport list